Saint-Alexandre-De-Kamouraska, Canada
Current Conditions -  °F | °C
As of 12:53 PM on Thursday 23 Oct 2014 (Local Time) from KFVE Reporting Station
Overcast Overcast  
Wind Chill: 36°   Ceiling: 1600
Heat Index: 43°   Visibility: 10mi
Dew Point: 35°   Wind: 15mph
Humidity: 74%   Direction: 60°ENE
Pressure: 30.13"   Gusts: 23mph
Location:  47.68°N, 69.63°W
Report Text: KFVE 231653Z AUTO 06013G20KT 10SM BKN016 OVC095 06/02 A3013 RMK AO2 SLP211 T00610017
Loading
Personal Weather Stations






























Interactive Weather Map
Tropical Storm Tracking
New forecast layout! Learn more

10-Day Weather Forecast

Advertisements
Track Severe Weather on mobile